Terminal Aerodrome Forecast
Issued by NWS

Home | Current Version | Previous Version | Text Only | Print | Product List | Glossary On
Versions: 1 2 3 4 5 6 7 8 9 10 11 12 13 14 15
019
FTUS45 KRIW 202110 AAB
TAFCPR
TAF AMD
KCPR 202110Z 2021/2118 22027G37KT P6SM FEW100
     FM210300 22022G32KT P6SM FEW100
     FM210800 22028G42KT P6SM SCT100 BKN200=

USA.gov is the U.S. government's official web portal to all federal, state and local government web resources and services.